Time;durP1;ratioP1;P1;durP2;ratioP2;P2;SDS_P1;SDS_P2;PMS_P1;PMS_P2;Temp;Humidity;BMP_temperature;BMP_pressure;BME280_temperature;BME280_humidity;BME280_pressure;Samples;Min_cycle;Max_cycle;Signal;HPM_P1;HPM_P2
2022/04/15 00:00:56;;;;;;;10.63;5.32;;;;;;;15.57;61.16;97176.66;6327960;22;20004;-78
2022/04/15 00:03:24;;;;;;;9.30;6.32;;;;;;;15.55;60.78;97176.84;6332600;22;20003;-78
2022/04/15 00:05:52;;;;;;;8.85;5.70;;;;;;;15.54;60.88;97180.47;6331855;22;20027;-78
2022/04/15 00:08:20;;;;;;;8.90;6.05;;;;;;;15.52;61.12;97185.13;6318110;22;20071;-78
2022/04/15 00:10:48;;;;;;;7.93;5.35;;;;;;;15.53;61.44;97181.50;6315676;22;20043;-78
2022/04/15 00:13:19;;;;;;;7.82;6.90;;;;;;;15.55;61.28;97187.38;6318056;22;20022;-78
2022/04/15 00:15:47;;;;;;;6.82;6.13;;;;;;;15.53;61.12;97188.59;6316452;22;20015;-77
2022/04/15 00:18:16;;;;;;;9.02;6.15;;;;;;;15.50;61.37;97194.22;6316531;22;20521;-78
2022/04/15 00:20:44;;;;;;;9.43;6.95;;;;;;;15.43;60.98;97191.56;6315573;22;20019;-78
2022/04/15 00:23:11;;;;;;;9.02;6.20;;;;;;;15.36;61.45;97198.63;6314331;22;20098;-78
2022/04/15 00:25:39;;;;;;;9.63;5.47;;;;;;;15.30;62.08;97196.78;6315750;22;20021;-78
2022/04/15 00:28:06;;;;;;;8.45;5.93;;;;;;;15.32;61.89;97197.41;6315559;22;20026;-78
2022/04/15 00:30:34;;;;;;;9.93;5.90;;;;;;;15.35;61.77;97197.84;6316058;22;20015;-78
2022/04/15 00:33:02;;;;;;;7.18;5.22;;;;;;;15.38;61.69;97196.63;6318176;22;20016;-78
2022/04/15 00:35:31;;;;;;;8.65;5.82;;;;;;;15.40;61.54;97195.41;6315853;22;20030;-78
2022/04/15 00:37:59;;;;;;;8.25;6.07;;;;;;;15.42;61.65;97192.59;6315602;22;20275;-78
2022/04/15 00:40:26;;;;;;;8.90;5.45;;;;;;;15.42;61.53;97188.13;6316422;22;20082;-78
2022/04/15 00:42:54;;;;;;;8.90;5.82;;;;;;;15.41;61.26;97190.97;6315812;22;20019;-78
2022/04/15 00:45:22;;;;;;;10.40;6.20;;;;;;;15.36;61.45;97185.50;6315816;22;20424;-78
2022/04/15 00:47:52;;;;;;;6.78;5.85;;;;;;;15.35;61.78;97186.47;6318347;22;20039;-78
2022/04/15 00:50:21;;;;;;;10.82;5.65;;;;;;;15.37;61.71;97179.22;6317488;22;20022;-78
2022/04/15 00:52:51;;;;;;;8.27;5.82;;;;;;;15.34;61.59;97177.00;6319526;22;20011;-78
2022/04/15 00:55:22;;;;;;;6.47;5.88;;;;;;;15.29;61.41;97188.09;6317664;22;20020;-78
2022/04/15 00:57:51;;;;;;;9.50;5.80;;;;;;;15.22;61.52;97185.44;6291891;22;20020;-78
2022/04/15 01:00:20;;;;;;;8.43;6.03;;;;;;;15.21;61.52;97185.63;6285585;22;20015;-82
2022/04/15 01:02:48;;;;;;;9.05;6.05;;;;;;;15.19;61.46;97188.47;6284017;22;20050;-80
2022/04/15 01:05:17;;;;;;;8.52;6.40;;;;;;;15.18;62.15;97189.47;6283555;22;20448;-79
2022/04/15 01:07:49;;;;;;;12.20;7.82;;;;;;;15.18;62.09;97178.97;6283253;22;20020;-82
2022/04/15 01:10:20;;;;;;;6.65;5.82;;;;;;;15.22;62.06;97188.09;6285536;22;20020;-79
2022/04/15 01:12:51;;;;;;;8.65;5.20;;;;;;;15.25;61.47;97182.41;6285365;22;20026;-82
2022/04/15 01:15:39;;;;;;;8.00;5.03;;;;;;;15.27;61.48;97181.44;6282526;22;20019;-77
2022/04/15 01:18:07;;;;;;;6.97;5.22;;;;;;;15.29;61.53;97182.84;6281010;22;20022;-80
2022/04/15 01:20:35;;;;;;;8.60;5.90;;;;;;;15.28;61.30;97180.41;6282012;22;20026;-78
2022/04/15 01:23:06;;;;;;;7.50;5.30;;;;;;;15.25;61.75;97190.31;6282853;22;20019;-79
2022/04/15 01:25:35;;;;;;;11.45;5.68;;;;;;;15.23;61.24;97186.25;6282441;22;20020;-77
2022/04/15 01:28:03;;;;;;;6.57;5.25;;;;;;;15.14;61.09;97193.50;6281521;22;20035;-81
2022/04/15 01:30:31;;;;;;;6.20;5.05;;;;;;;15.05;61.53;97194.69;6282021;22;20023;-78
2022/04/15 01:32:59;;;;;;;6.80;5.97;;;;;;;14.98;61.66;97191.22;6282787;22;20016;-77
2022/04/15 01:35:33;;;;;;;;;;;;;;;14.95;61.38;97194.22;6283771;22;20031;-78
2022/04/15 01:38:02;;;;;;;10.50;5.72;;;;;;;14.81;61.50;97207.28;6282407;22;19915;-79
2022/04/15 01:40:31;;;;;;;11.02;6.47;;;;;;;14.71;62.17;97201.56;6281924;22;20098;-78
2022/04/15 01:42:59;;;;;;;7.95;6.72;;;;;;;14.65;62.34;97204.16;6281880;22;20102;-77
2022/04/15 01:45:26;;;;;;;9.18;5.93;;;;;;;14.62;62.69;97207.97;6282437;22;20028;-79
2022/04/15 01:47:54;;;;;;;7.57;5.60;;;;;;;14.66;62.85;97203.16;6280959;22;20024;-77
2022/04/15 01:50:23;;;;;;;7.65;6.20;;;;;;;14.72;62.85;97207.63;6289387;22;20030;-79
2022/04/15 01:52:51;;;;;;;7.65;6.05;;;;;;;14.76;62.65;97204.44;6283761;22;20079;-77
2022/04/15 01:55:18;;;;;;;9.02;6.18;;;;;;;14.75;62.42;97204.63;6283903;22;20016;-78
2022/04/15 01:57:47;;;;;;;8.63;6.90;;;;;;;14.67;61.72;97207.38;6281208;22;20016;-77
2022/04/15 02:00:15;;;;;;;7.65;6.28;;;;;;;14.55;61.94;97209.75;6282459;22;20026;-79
2022/04/15 02:02:43;;;;;;;8.60;6.85;;;;;;;14.42;62.40;97202.56;6282084;22;20020;-78
2022/04/15 02:05:10;;;;;;;9.18;6.65;;;;;;;14.32;62.54;97199.44;6282199;22;20023;-79
2022/04/15 02:07:38;;;;;;;9.45;6.60;;;;;;;14.22;62.86;97200.59;6281816;22;20020;-75
2022/04/15 02:10:07;;;;;;;7.47;6.50;;;;;;;14.15;63.00;97201.56;6282376;22;20030;-76
2022/04/15 02:12:34;;;;;;;10.10;6.55;;;;;;;14.06;63.26;97200.88;6281908;22;20016;-78
2022/04/15 02:15:04;;;;;;;7.53;6.72;;;;;;;13.98;63.72;97204.44;6282568;22;20418;-76
2022/04/15 02:17:32;;;;;;;9.30;6.97;;;;;;;13.93;63.64;97195.50;6282716;22;20027;-75
2022/04/15 02:19:59;;;;;;;8.90;6.28;;;;;;;13.87;64.06;97194.44;6281710;22;20026;-80
2022/04/15 02:22:27;;;;;;;8.25;7.15;;;;;;;13.86;64.08;97199.88;6282136;22;20022;-77
2022/04/15 02:24:54;;;;;;;7.50;6.53;;;;;;;13.85;64.24;97206.94;6281433;22;20024;-77
2022/04/15 02:27:22;;;;;;;9.80;6.97;;;;;;;13.83;64.30;97208.94;6280092;22;20351;-76
2022/04/15 02:29:50;;;;;;;7.35;6.35;;;;;;;13.81;64.29;97216.16;6281549;22;20020;-78
2022/04/15 02:32:19;;;;;;;9.18;7.15;;;;;;;13.79;64.67;97205.06;6281300;22;20090;-77
2022/04/15 02:34:46;;;;;;;7.75;6.07;;;;;;;13.76;64.38;97202.81;6281836;22;20098;-76
2022/04/15 02:37:14;;;;;;;9.13;7.13;;;;;;;13.72;64.25;97204.19;6280793;22;20028;-77
2022/04/15 02:39:41;;;;;;;8.85;6.30;;;;;;;13.67;64.22;97211.81;6281685;22;20024;-77
2022/04/15 02:42:09;;;;;;;11.40;5.80;;;;;;;13.61;64.34;97213.34;6282298;22;20102;-78
2022/04/15 02:44:38;;;;;;;9.50;7.47;;;;;;;13.53;64.69;97203.78;6282374;22;20023;-76
2022/04/15 02:47:08;;;;;;;8.02;6.90;;;;;;;13.48;64.91;97211.38;6280871;22;20020;-76
2022/04/15 02:49:37;;;;;;;8.88;6.68;;;;;;;13.45;65.05;97201.28;6282722;22;20333;-76
2022/04/15 02:52:05;;;;;;;9.25;6.07;;;;;;;13.45;65.31;97201.28;6281917;22;20443;-79
2022/04/15 02:54:33;;;;;;;9.93;6.90;;;;;;;13.44;64.62;97201.47;6282344;22;20478;-76
2022/04/15 02:57:01;;;;;;;7.90;6.72;;;;;;;13.38;64.49;97200.38;6281777;22;20026;-77
2022/04/15 02:59:29;;;;;;;7.30;6.40;;;;;;;13.28;64.73;97200.69;6282437;22;20023;-80
2022/04/15 03:01:56;;;;;;;9.70;7.50;;;;;;;13.25;65.09;97211.50;6283602;22;20022;-78
2022/04/15 03:04:24;;;;;;;9.77;7.00;;;;;;;13.20;65.11;97214.66;6282931;22;20020;-79
2022/04/15 03:06:52;;;;;;;9.13;7.07;;;;;;;13.16;65.36;97213.44;6281855;22;20448;-77
2022/04/15 03:09:21;;;;;;;9.93;7.38;;;;;;;13.13;65.30;97213.78;6282428;22;20456;-78
2022/04/15 03:11:49;;;;;;;8.95;7.13;;;;;;;13.11;65.23;97215.75;6283568;22;20015;-79
2022/04/15 03:14:17;;;;;;;13.75;8.57;;;;;;;13.10;64.99;97213.34;6282875;22;20020;-78
2022/04/15 03:16:45;;;;;;;9.68;7.13;;;;;;;13.07;65.04;97218.94;6281564;22;20028;-78
2022/04/15 03:19:12;;;;;;;10.27;8.05;;;;;;;13.01;65.15;97215.25;6282908;22;20024;-78
2022/04/15 03:21:40;;;;;;;10.45;7.43;;;;;;;13.00;65.35;97218.84;6283592;22;20019;-76
2022/04/15 03:24:09;;;;;;;10.38;8.25;;;;;;;13.00;65.50;97218.84;6283865;22;20422;-76
2022/04/15 03:26:36;;;;;;;11.07;8.15;;;;;;;12.98;65.16;97218.22;6282084;22;20023;-79
2022/04/15 03:29:04;;;;;;;10.90;8.18;;;;;;;12.93;65.11;97217.97;6282804;22;20098;-78
2022/04/15 03:31:31;;;;;;;11.73;8.48;;;;;;;12.85;64.85;97220.66;6282063;22;20020;-75
2022/04/15 03:33:59;;;;;;;10.85;7.97;;;;;;;12.72;64.99;97223.91;6282675;22;20035;-75
2022/04/15 03:36:27;;;;;;;11.45;7.88;;;;;;;12.61;65.31;97230.38;6283155;22;20054;-77
2022/04/15 03:38:54;;;;;;;10.63;8.07;;;;;;;12.51;65.64;97230.66;6284135;22;20030;-77
2022/04/15 03:41:23;;;;;;;10.70;8.50;;;;;;;12.48;66.16;97235.41;6284808;22;20019;-76
2022/04/15 03:43:51;;;;;;;11.52;7.47;;;;;;;12.48;66.22;97238.03;6284536;22;20015;-78
2022/04/15 03:46:19;;;;;;;12.07;7.30;;;;;;;12.48;66.30;97235.41;6284613;22;20019;-77
2022/04/15 03:48:46;;;;;;;10.75;7.90;;;;;;;12.45;66.38;97235.78;6285016;22;20050;-77
2022/04/15 03:51:14;;;;;;;10.57;7.90;;;;;;;12.42;66.35;97236.13;6285092;22;20027;-77
2022/04/15 03:53:41;;;;;;;8.48;7.25;;;;;;;12.39;66.16;97236.50;6285430;22;20076;-77
2022/04/15 03:56:09;;;;;;;12.32;7.85;;;;;;;12.34;66.29;97239.66;6283159;22;20027;-77
2022/04/15 03:58:38;;;;;;;10.77;8.05;;;;;;;12.33;66.62;97238.84;6284027;22;20019;-75
2022/04/15 04:01:06;;;;;;;7.93;7.13;;;;;;;12.32;66.22;97236.38;6284418;22;20020;-76
2022/04/15 04:03:33;;;;;;;10.57;8.15;;;;;;;12.29;66.31;97239.38;6283568;22;20355;-76
2022/04/15 04:06:01;;;;;;;10.52;8.00;;;;;;;12.24;66.04;97239.88;6283074;22;20023;-76
2022/04/15 04:08:28;;;;;;;10.60;7.30;;;;;;;12.18;66.36;97242.38;6284717;22;20023;-79
2022/04/15 04:10:56;;;;;;;14.45;7.60;;;;;;;12.11;66.49;97237.03;6285556;22;20468;-77
2022/04/15 04:13:24;;;;;;;11.13;7.65;;;;;;;12.05;66.61;97245.63;6298265;22;20035;-80
2022/04/15 04:15:52;;;;;;;12.30;8.27;;;;;;;11.99;66.91;97238.47;6299980;22;20023;-79
2022/04/15 04:18:21;;;;;;;12.60;8.10;;;;;;;11.98;66.88;97242.03;6291213;22;20024;-80
2022/04/15 04:20:49;;;;;;;11.43;7.20;;;;;;;11.95;67.54;97244.03;6285760;22;20031;-80
2022/04/15 04:23:16;;;;;;;11.18;7.43;;;;;;;11.99;67.77;97243.69;6287452;22;20026;-79
2022/04/15 04:25:43;;;;;;;9.73;6.57;;;;;;;12.02;67.94;97238.09;6286655;22;20028;-79
2022/04/15 04:28:11;;;;;;;10.85;7.80;;;;;;;12.05;67.76;97246.41;6285647;22;20028;-77
2022/04/15 04:30:39;;;;;;;9.10;6.63;;;;;;;12.08;67.57;97248.66;6286097;22;20072;-79
2022/04/15 04:33:08;;;;;;;8.65;7.55;;;;;;;12.10;67.44;97248.50;6286237;22;20076;-80
2022/04/15 04:35:37;;;;;;;8.55;7.13;;;;;;;12.08;67.27;97248.66;6285873;22;20076;-78
2022/04/15 04:38:06;;;;;;;12.20;8.35;;;;;;;12.05;67.23;97256.88;6285706;22;20094;-78
2022/04/15 04:40:34;;;;;;;12.90;8.15;;;;;;;12.04;67.40;97257.03;6287907;22;20044;-80
2022/04/15 04:43:02;;;;;;;9.77;7.60;;;;;;;12.02;67.39;97259.03;6287294;22;20095;-77
2022/04/15 04:45:31;;;;;;;9.68;7.53;;;;;;;12.05;67.64;97261.31;6285249;22;20024;-78
2022/04/15 04:48:00;;;;;;;11.00;7.63;;;;;;;12.12;67.44;97270.06;6286404;22;20378;-82
2022/04/15 04:50:30;;;;;;;9.77;6.40;;;;;;;12.21;67.47;97263.78;6287474;22;20038;-77
2022/04/15 04:52:59;;;;;;;9.95;8.07;;;;;;;12.25;66.72;97272.09;6286013;22;20043;-79
2022/04/15 04:55:27;;;;;;;12.35;8.60;;;;;;;12.25;66.50;97272.91;6286464;22;20043;-78
2022/04/15 04:57:54;;;;;;;12.98;8.10;;;;;;;12.25;66.52;97272.91;6285257;22;20023;-80
2022/04/15 05:00:22;;;;;;;9.95;7.13;;;;;;;12.25;66.48;97277.31;6287618;22;20107;-83
2022/04/15 05:02:50;;;;;;;10.40;7.82;;;;;;;12.24;66.52;97281.72;6286023;22;20410;-77
2022/04/15 05:05:17;;;;;;;13.35;8.18;;;;;;;12.28;66.42;97276.97;6285552;22;20028;-78
2022/04/15 05:07:46;;;;;;;8.65;7.72;;;;;;;12.28;66.44;97284.81;6284611;22;20023;-78
2022/04/15 05:10:14;;;;;;;10.20;7.60;;;;;;;12.27;66.36;97277.97;6286067;22;20106;-79
2022/04/15 05:12:41;;;;;;;9.65;7.70;;;;;;;12.28;66.43;97280.38;6286328;22;20038;-78
2022/04/15 05:15:11;;;;;;;6.97;6.07;;;;;;;12.33;66.85;97290.31;6286560;22;20094;-78
2022/04/15 05:17:39;;;;;;;8.93;7.15;;;;;;;12.40;66.44;97286.03;6285343;22;20070;-77
2022/04/15 05:20:08;;;;;;;13.02;7.90;;;;;;;12.46;66.17;97285.34;6287202;22;20030;-80
2022/04/15 05:22:35;;;;;;;9.57;7.82;;;;;;;12.48;66.03;97287.75;6286645;22;20020;-78
2022/04/15 05:25:06;;;;;;;9.43;7.53;;;;;;;12.51;66.27;97287.41;6287117;22;20075;-78
2022/04/15 05:27:33;;;;;;;11.82;8.02;;;;;;;12.56;66.09;97290.31;6285286;22;20047;-79
2022/04/15 05:30:01;;;;;;;10.43;7.95;;;;;;;12.56;66.11;97290.31;6285874;22;20364;-79
2022/04/15 05:32:29;;;;;;;10.70;7.90;;;;;;;12.55;66.32;97291.28;6286585;22;20045;-78
2022/04/15 05:34:56;;;;;;;12.68;8.15;;;;;;;12.53;66.36;97295.91;6287177;22;20202;-78
2022/04/15 05:37:24;;;;;;;9.95;7.80;;;;;;;12.57;66.71;97305.00;6287749;22;20413;-79
2022/04/15 05:39:51;;;;;;;9.75;7.47;;;;;;;12.62;66.56;97304.50;6287734;22;20030;-77
2022/04/15 05:42:20;;;;;;;12.15;8.30;;;;;;;12.65;66.59;97304.94;6286571;22;20026;-78
2022/04/15 05:44:48;;;;;;;12.32;8.57;;;;;;;12.69;66.69;97306.22;6286146;22;20020;-81
2022/04/15 05:47:15;;;;;;;14.05;8.63;;;;;;;12.70;66.55;97309.66;6285063;22;20539;-76
2022/04/15 05:49:43;;;;;;;11.35;7.35;;;;;;;12.73;66.77;97309.31;6286202;22;20026;-78
2022/04/15 05:52:10;;;;;;;8.80;6.75;;;;;;;12.82;67.02;97316.09;6288766;22;20529;-78
2022/04/15 05:54:38;;;;;;;14.80;8.32;;;;;;;12.86;66.54;97313.94;6289034;22;20024;-78
2022/04/15 05:57:05;;;;;;;13.52;8.30;;;;;;;12.89;66.54;97308.34;6287984;22;20016;-78
2022/04/15 05:59:34;;;;;;;13.18;7.95;;;;;;;12.97;67.01;97316.13;6288108;22;20072;-78
2022/04/15 06:02:02;;;;;;;10.88;7.22;;;;;;;13.04;66.74;97319.63;6288368;22;20024;-78
2022/04/15 06:04:30;;;;;;;10.35;7.18;;;;;;;13.10;66.53;97313.69;6288178;22;20174;-79
2022/04/15 06:06:57;;;;;;;12.98;8.48;;;;;;;13.19;66.52;97320.47;6287330;22;20274;-78
2022/04/15 06:09:25;;;;;;;10.63;7.63;;;;;;;13.29;66.29;97322.81;6288310;22;20082;-80
2022/04/15 06:11:55;;;;;;;11.02;7.63;;;;;;;13.37;65.97;97321.94;6287850;22;20026;-78
2022/04/15 06:14:23;;;;;;;9.93;7.43;;;;;;;13.45;65.99;97332.31;6284583;22;20015;-78
2022/04/15 06:16:53;;;;;;;9.73;6.60;;;;;;;13.56;65.95;97329.25;6284622;22;20026;-78
2022/04/15 06:19:22;;;;;;;11.02;6.60;;;;;;;13.66;65.57;97323.69;6284978;22;20023;-79
2022/04/15 06:21:52;;;;;;;10.70;7.35;;;;;;;13.77;65.49;97331.13;6284756;22;20102;-77
2022/04/15 06:24:20;;;;;;;11.48;7.32;;;;;;;13.88;65.26;97329.81;6284554;22;20020;-78
2022/04/15 06:26:49;;;;;;;8.38;6.45;;;;;;;13.98;65.04;97326.91;6282027;22;20091;-77
2022/04/15 06:29:17;;;;;;;9.55;7.25;;;;;;;14.09;64.89;97325.59;6284012;22;20043;-75
2022/04/15 06:31:44;;;;;;;11.55;7.32;;;;;;;14.20;64.78;97331.16;6283618;22;20023;-77
2022/04/15 06:34:14;;;;;;;8.77;7.00;;;;;;;14.30;64.60;97332.66;6284271;22;20074;-78
2022/04/15 06:36:41;;;;;;;9.55;6.95;;;;;;;14.38;64.51;97327.28;6283009;22;20106;-78
2022/04/15 06:39:08;;;;;;;12.48;7.40;;;;;;;14.49;64.13;97332.03;6283945;22;20043;-79
2022/04/15 06:41:36;;;;;;;9.30;6.55;;;;;;;14.63;63.98;97335.63;6283294;22;20038;-78
2022/04/15 06:44:04;;;;;;;7.20;6.20;;;;;;;14.75;63.57;97334.09;6285419;22;20090;-76
2022/04/15 06:46:32;;;;;;;6.05;5.25;;;;;;;14.88;63.16;97333.41;6284203;22;20047;-76
2022/04/15 06:49:00;;;;;;;7.88;6.60;;;;;;;15.03;63.21;97335.94;6284439;22;20073;-78
2022/04/15 06:51:28;;;;;;;9.38;5.32;;;;;;;15.15;62.07;97333.56;6286818;22;20568;-78
2022/04/15 06:53:56;;;;;;;7.88;6.03;;;;;;;15.25;61.64;97328.78;6284811;22;20020;-79
2022/04/15 07:04:30;;;;;;;8.02;4.65;;;;;;;15.74;60.61;97327.88;6280783;22;20495;-81
2022/04/15 07:07:00;;;;;;;8.75;5.35;;;;;;;15.88;59.74;97327.91;6278097;22;20020;-80
2022/04/15 07:09:28;;;;;;;5.80;4.30;;;;;;;16.00;59.36;97335.00;6277542;22;20511;-80
2022/04/15 07:11:56;;;;;;;8.40;4.88;;;;;;;16.09;59.38;97335.66;6277638;22;20020;-80
2022/04/15 07:14:24;;;;;;;7.55;4.57;;;;;;;16.17;58.96;97327.56;6277978;22;20020;-80
2022/04/15 07:27:53;;;;;;;5.70;4.40;;;;;;;16.79;57.16;97328.25;6286299;22;20343;-76
2022/04/15 07:30:20;;;;;;;5.95;3.80;;;;;;;16.92;56.81;97330.09;6307738;22;20030;-79
2022/04/15 07:32:48;;;;;;;5.63;3.75;;;;;;;17.04;57.00;97325.03;6306508;22;20030;-78
2022/04/15 07:35:16;;;;;;;4.07;3.60;;;;;;;17.18;55.99;97329.25;6305953;22;20463;-79
2022/04/15 07:37:43;;;;;;;6.00;3.58;;;;;;;17.33;55.50;97326.38;6305783;22;20328;-79
2022/04/15 07:40:12;;;;;;;6.40;4.13;;;;;;;17.44;53.75;97327.56;6306578;22;20041;-79
2022/04/15 07:42:40;;;;;;;3.90;2.97;;;;;;;17.57;53.35;97327.53;6312892;22;20023;-79
2022/04/15 07:45:09;;;;;;;3.17;2.70;;;;;;;17.70;51.51;97324.03;6321894;22;20094;-79
2022/04/15 07:47:37;;;;;;;3.85;1.67;;;;;;;17.84;51.32;97323.00;6325838;22;20019;-79
2022/04/15 07:50:21;;;;;;;3.47;2.70;;;;;;;17.99;49.79;97314.78;6323943;22;20038;-80
2022/04/15 07:52:49;;;;;;;2.72;2.17;;;;;;;18.15;48.80;97328.50;6323480;22;20045;-80
2022/04/15 07:55:17;;;;;;;3.97;3.03;;;;;;;18.30;47.50;97323.75;6323514;22;20026;-80
2022/04/15 07:57:46;;;;;;;3.85;3.08;;;;;;;18.47;47.02;97327.47;6329870;22;20013;-80
2022/04/15 08:00:16;;;;;;;4.07;3.67;;;;;;;18.67;46.36;97321.25;6331468;22;20245;-79
2022/04/15 08:02:45;;;;;;;5.68;3.72;;;;;;;18.88;46.51;97328.81;6329550;22;20023;-80
2022/04/15 08:05:14;;;;;;;5.53;3.17;;;;;;;19.10;46.84;97333.72;6325870;22;20049;-80
2022/04/15 08:07:42;;;;;;;3.92;3.53;;;;;;;19.35;45.51;97329.22;6324732;22;20022;-80
2022/04/15 08:10:10;;;;;;;4.60;3.50;;;;;;;19.58;44.86;97332.22;6324516;22;20022;-80
2022/04/15 08:12:39;;;;;;;5.75;4.93;;;;;;;19.76;44.66;97335.69;6327627;22;20041;-80
2022/04/15 08:15:08;;;;;;;8.15;4.38;;;;;;;20.00;43.59;97337.66;6327537;22;20025;-80
2022/04/15 08:17:38;;;;;;;5.22;4.72;;;;;;;20.18;42.32;97334.94;6328281;22;20022;-80
2022/04/15 08:20:08;;;;;;;5.40;4.50;;;;;;;20.33;42.78;97335.38;6329140;22;20026;-80
2022/04/15 08:22:37;;;;;;;6.00;5.40;;;;;;;20.49;42.42;97339.19;6329109;22;20049;-80
2022/04/15 08:25:07;;;;;;;5.32;4.80;;;;;;;20.62;41.87;97340.88;6330527;22;20015;-80
2022/04/15 08:27:36;;;;;;;4.55;3.70;;;;;;;20.76;41.90;97341.47;6330149;22;20019;-80
2022/04/15 08:30:05;;;;;;;4.18;3.20;;;;;;;20.88;42.00;97342.31;6331095;22;20027;-80
2022/04/15 08:32:34;;;;;;;6.60;4.38;;;;;;;20.91;40.74;97341.03;6331695;22;20046;-80
2022/04/15 08:35:13;;;;;;;4.88;4.28;;;;;;;20.86;40.44;97343.53;6333103;22;20034;-80
2022/04/15 08:37:42;;;;;;;8.23;5.03;;;;;;;20.73;41.21;97342.75;6334453;22;20003;-80
2022/04/15 08:40:12;;;;;;;7.15;4.90;;;;;;;20.66;41.30;97343.88;6334363;22;20049;-80
2022/04/15 08:42:42;;;;;;;4.93;3.70;;;;;;;20.76;41.38;97344.13;6332536;22;20019;-80
2022/04/15 08:45:13;;;;;;;6.30;4.43;;;;;;;20.89;40.94;97341.25;6331933;22;20003;-80
2022/04/15 08:47:47;;;;;;;6.53;5.30;;;;;;;21.05;40.52;97342.41;6332502;22;20090;-80
2022/04/15 08:50:18;;;;;;;10.68;7.57;;;;;;;21.23;39.48;97346.81;6333125;22;20029;-80
2022/04/15 08:52:48;;;;;;;7.00;6.07;;;;;;;21.47;39.70;97344.13;6333372;22;20060;-80
2022/04/15 08:55:21;;;;;;;7.15;5.85;;;;;;;21.66;39.22;97345.59;6333631;22;20043;-80
2022/04/15 08:57:51;;;;;;;9.82;5.60;;;;;;;21.86;38.89;97347.06;6334237;22;20023;-80
2022/04/15 09:00:21;;;;;;;8.90;7.97;;;;;;;21.97;37.37;97340.91;6334781;22;20051;-80
2022/04/15 09:02:54;;;;;;;6.88;5.80;;;;;;;22.04;37.01;97338.94;6334940;22;20007;-80
2022/04/15 09:05:30;;;;;;;6.82;5.75;;;;;;;21.94;36.68;97349.34;6334872;22;20030;-81
2022/04/15 09:08:05;;;;;;;6.13;4.63;;;;;;;21.69;37.09;97337.19;6308837;22;19999;-80
2022/04/15 09:10:37;;;;;;;4.55;3.28;;;;;;;21.54;38.22;97344.84;6336647;22;20003;-80
2022/04/15 09:13:20;;;;;;;3.60;3.05;;;;;;;21.35;38.64;97341.47;6337038;22;20030;-80
2022/04/15 09:15:55;;;;;;;5.95;3.63;;;;;;;21.24;38.99;97339.66;6336114;22;20037;-80
2022/04/15 09:18:30;;;;;;;4.38;3.60;;;;;;;21.09;39.30;97338.25;6336629;22;20003;-80
2022/04/15 09:21:24;;;;;;;3.88;2.80;;;;;;;20.97;39.89;97343.56;6336688;22;20011;-80
2022/04/15 09:23:58;;;;;;;5.30;2.80;;;;;;;20.88;40.47;97337.00;6336688;22;20041;-80
2022/04/15 09:26:28;;;;;;;4.20;3.75;;;;;;;20.79;40.71;97338.34;6336483;22;20023;-80
2022/04/15 09:29:06;;;;;;;4.78;3.88;;;;;;;20.69;41.06;97338.13;6336416;22;20019;-80
2022/04/15 09:31:40;;;;;;;3.53;3.15;;;;;;;20.78;41.60;97347.34;6336034;22;20014;-80
2022/04/15 09:34:12;;;;;;;6.05;3.40;;;;;;;20.95;41.20;97355.44;6337049;22;20007;-80
2022/04/15 09:36:47;;;;;;;4.30;3.25;;;;;;;20.95;40.68;97344.84;6336467;22;20019;-80
2022/04/15 09:39:18;;;;;;;5.13;4.10;;;;;;;20.87;40.37;97347.81;6335296;22;20003;-80
2022/04/15 09:41:55;;;;;;;3.95;3.50;;;;;;;20.72;40.65;97354.38;6336325;22;20010;-80
2022/04/15 09:47:11;;;;;;;3.95;3.55;;;;;;;20.73;40.61;97349.88;6335114;22;20022;-80
2022/04/15 09:49:46;;;;;;;4.88;3.28;;;;;;;20.89;40.40;97340.44;6337220;22;20003;-80
2022/04/15 09:52:28;;;;;;;4.68;3.55;;;;;;;21.09;40.64;97345.41;6336820;22;20058;-80
2022/04/15 09:55:10;;;;;;;5.07;4.57;;;;;;;21.24;39.87;97337.78;6315105;22;20009;-79
2022/04/15 09:57:42;;;;;;;5.13;4.32;;;;;;;21.31;40.02;97340.31;6336714;22;20034;-80
2022/04/15 10:00:13;;;;;;;;;;;;;;;21.46;39.84;97337.22;6338207;22;20050;-79
2022/04/15 10:02:44;;;;;;;6.18;3.95;;;;;;;21.56;38.77;97342.75;6319076;22;19922;-79
2022/04/15 10:05:15;;;;;;;6.93;5.28;;;;;;;21.65;37.81;97340.56;6306151;22;20080;-79
2022/04/15 10:07:45;;;;;;;5.97;5.38;;;;;;;21.67;37.45;97333.97;6296369;22;20011;-75
2022/04/15 10:10:13;;;;;;;6.93;5.57;;;;;;;21.56;37.65;97343.56;6278817;22;20079;-75
2022/04/15 10:12:42;;;;;;;6.65;5.90;;;;;;;21.40;38.15;97350.34;6277250;22;20020;-77
2022/04/15 10:15:11;;;;;;;7.88;5.50;;;;;;;21.28;38.39;97346.91;6278494;22;20023;-78
2022/04/15 10:17:40;;;;;;;6.38;5.68;;;;;;;21.12;38.48;97342.28;6275160;22;20019;-77
2022/04/15 10:20:08;;;;;;;7.03;6.05;;;;;;;20.95;39.44;97345.63;6276772;22;20030;-78
2022/04/15 10:22:39;;;;;;;6.63;5.88;;;;;;;20.96;39.42;97341.13;6276528;22;20094;-78
2022/04/15 10:25:08;;;;;;;7.35;5.78;;;;;;;21.01;39.24;97335.13;6276554;22;20035;-78
2022/04/15 10:27:36;;;;;;;7.57;5.03;;;;;;;21.11;39.53;97338.03;6275111;22;20024;-78
2022/04/15 10:30:14;;;;;;;5.07;4.18;;;;;;;21.21;39.62;97330.31;6276061;22;20019;-77
2022/04/15 10:32:49;;;;;;;6.22;5.63;;;;;;;21.32;39.60;97332.16;6277257;22;20016;-78
2022/04/15 10:35:26;;;;;;;5.63;4.95;;;;;;;21.44;39.14;97334.81;6276184;22;20020;-78
2022/04/15 10:37:55;;;;;;;3.80;3.50;;;;;;;21.59;37.13;97323.69;6275401;22;20024;-77
2022/04/15 10:40:26;;;;;;;5.18;4.30;;;;;;;21.72;36.00;97331.41;6276426;22;20356;-78
2022/04/15 10:42:54;;;;;;;4.40;3.97;;;;;;;21.76;36.26;97324.59;6276063;22;20475;-78
2022/04/15 10:45:31;;;;;;;6.45;5.80;;;;;;;21.75;35.86;97336.22;6276166;22;20460;-77
2022/04/15 10:48:00;;;;;;;5.85;4.70;;;;;;;21.69;36.18;97337.19;6275538;22;20020;-78
2022/04/15 10:50:29;;;;;;;5.28;4.40;;;;;;;21.61;36.41;97334.91;6276959;22;20035;-78
2022/04/15 10:53:30;;;;;;;7.25;5.18;;;;;;;21.56;36.28;97337.47;6276582;22;20382;-78
2022/04/15 10:56:08;;;;;;;6.18;5.45;;;;;;;21.58;36.43;97330.03;6288076;22;20083;-77
2022/04/15 11:01:53;;;;;;;5.63;5.00;;;;;;;21.67;36.45;97327.81;6277422;22;20026;-78
2022/04/15 11:04:25;;;;;;;6.07;5.20;;;;;;;21.71;35.95;97329.81;6276679;22;20024;-77
2022/04/15 11:06:54;;;;;;;6.22;5.40;;;;;;;21.78;35.38;97332.31;6275593;22;20026;-78
2022/04/15 11:09:24;;;;;;;6.22;5.25;;;;;;;21.81;35.50;97319.34;6276134;22;20019;-77
2022/04/15 11:11:54;;;;;;;4.93;4.47;;;;;;;21.88;35.24;97308.59;6275701;22;20012;-78
2022/04/15 11:14:35;;;;;;;4.75;4.25;;;;;;;22.01;36.17;97315.47;6276237;22;20027;-78
2022/04/15 11:17:07;;;;;;;4.22;3.80;;;;;;;22.14;35.26;97304.56;6274968;22;20026;-78
2022/04/15 11:19:35;;;;;;;5.32;4.82;;;;;;;22.17;35.01;97314.72;6275639;22;20478;-78
2022/04/15 11:22:03;;;;;;;4.53;4.13;;;;;;;22.17;34.88;97312.06;6276055;22;20026;-78
2022/04/15 11:24:33;;;;;;;8.43;5.50;;;;;;;22.17;34.50;97313.91;6276106;22;20329;-78
2022/04/15 11:27:04;;;;;;;5.38;4.88;;;;;;;22.15;34.93;97308.03;6274729;22;20489;-78
2022/04/15 11:29:33;;;;;;;4.40;4.00;;;;;;;22.16;35.30;97296.38;6276121;22;20058;-78
2022/04/15 11:32:01;;;;;;;5.07;4.63;;;;;;;22.19;34.98;97306.50;6275600;22;20025;-78
2022/04/15 11:34:29;;;;;;;5.78;3.97;;;;;;;22.23;34.37;97304.22;6275886;22;20031;-77
2022/04/15 11:37:02;;;;;;;5.90;4.88;;;;;;;22.23;34.00;97306.88;6274609;22;20024;-78
2022/04/15 11:39:29;;;;;;;5.53;5.00;;;;;;;22.25;34.04;97308.25;6275409;22;20490;-78
2022/04/15 11:41:58;;;;;;;7.32;5.22;;;;;;;22.21;34.26;97305.25;6275760;22;20360;-77
2022/04/15 11:44:31;;;;;;;5.05;4.55;;;;;;;22.23;34.40;97298.91;6275956;22;20348;-78
2022/04/15 11:47:15;;;;;;;4.63;4.10;;;;;;;22.32;34.61;97308.09;6274747;22;20032;-78
2022/04/15 11:49:44;;;;;;;5.32;4.82;;;;;;;22.42;34.17;97305.63;6276193;22;20163;-78
2022/04/15 11:52:11;;;;;;;5.10;4.07;;;;;;;22.46;33.43;97297.97;6275519;22;20020;-77
2022/04/15 11:54:39;;;;;;;5.35;4.85;;;;;;;22.50;33.60;97297.25;6275541;22;20094;-78
2022/04/15 11:57:07;;;;;;;5.70;5.00;;;;;;;22.53;33.25;97298.63;6274627;22;20024;-78
2022/04/15 11:59:39;;;;;;;7.07;4.97;;;;;;;22.50;33.47;97294.59;6275671;22;20019;-78
2022/04/15 12:02:07;;;;;;;6.25;4.75;;;;;;;22.54;33.44;97300.22;6275460;22;20473;-78
2022/04/15 12:04:35;;;;;;;6.38;4.25;;;;;;;22.54;33.46;97297.56;6276268;22;20024;-78
2022/04/15 12:07:03;;;;;;;7.80;5.65;;;;;;;22.56;33.20;97303.44;6275968;22;20016;-78